createdAt,value
2018-03-14T00:01:15.333Z,6.50
2018-03-14T00:03:41.316Z,6.50
2018-03-14T00:06:07.311Z,6.40
2018-03-14T00:08:33.301Z,6.40
2018-03-14T00:10:59.395Z,6.30
2018-03-14T00:13:25.354Z,6.40
2018-03-14T00:15:51.345Z,6.30
2018-03-14T00:18:17.311Z,6.40
2018-03-14T00:20:43.299Z,6.50
2018-03-14T00:23:09.266Z,6.50
2018-03-14T00:25:35.375Z,6.50
2018-03-14T00:28:01.331Z,6.60
2018-03-14T00:30:27.457Z,6.50
2018-03-14T00:32:53.436Z,6.40
2018-03-14T00:35:19.438Z,6.30
2018-03-14T00:37:46.135Z,6.30
2018-03-14T00:40:12.255Z,6.30
2018-03-14T00:42:38.255Z,6.30
2018-03-14T00:45:04.364Z,6.40
2018-03-14T00:47:30.348Z,6.40
2018-03-14T00:49:56.334Z,6.40
2018-03-14T00:52:22.319Z,6.30
2018-03-14T00:54:49.030Z,6.20
2018-03-14T00:57:14.976Z,6.20
2018-03-14T00:59:41.839Z,6.30
2018-03-14T01:02:07.804Z,6.30
2018-03-14T01:04:33.780Z,6.20
2018-03-14T01:06:59.739Z,6.30
2018-03-14T01:09:25.740Z,6.20
2018-03-14T01:11:52.449Z,6.10
2018-03-14T01:14:19.308Z,6.10
2018-03-14T01:16:45.310Z,6.10
2018-03-14T01:19:11.259Z,6.00
2018-03-14T01:21:37.368Z,6.10
2018-03-14T01:24:04.064Z,6.20
2018-03-14T01:26:30.065Z,6.10
2018-03-14T01:28:56.028Z,6.20
2018-03-14T01:31:22.136Z,6.30
2018-03-14T01:33:48.137Z,6.30
2018-03-14T01:36:14.134Z,6.30
2018-03-14T01:38:40.898Z,6.30
2018-03-14T01:41:07.765Z,6.20
2018-03-14T01:43:33.799Z,6.20
2018-03-14T01:45:59.749Z,6.20
2018-03-14T01:48:26.611Z,6.10
2018-03-14T01:50:52.588Z,6.10
2018-03-14T01:53:18.668Z,6.10
2018-03-14T01:55:44.628Z,5.90
2018-03-14T01:58:10.581Z,5.90
2018-03-14T02:00:37.324Z,5.80
2018-03-14T02:03:04.024Z,5.70
2018-03-14T02:05:30.023Z,5.70
2018-03-14T02:07:55.999Z,5.70
2018-03-14T02:10:22.888Z,5.80
2018-03-14T02:12:48.879Z,5.70
2018-03-14T02:15:15.609Z,5.80
2018-03-14T02:17:42.320Z,5.90
2018-03-14T02:20:08.275Z,5.90
2018-03-14T02:22:35.148Z,5.90
2018-03-14T02:25:01.110Z,5.90
2018-03-14T02:27:27.202Z,6.00
2018-03-14T02:29:53.152Z,6.10
2018-03-14T02:32:19.157Z,6.10
2018-03-14T02:34:45.105Z,6.10
2018-03-14T02:37:11.201Z,6.20
2018-03-14T02:39:37.196Z,6.30
2018-03-14T02:42:03.336Z,6.40
2018-03-14T02:44:29.452Z,6.30
2018-03-14T02:46:55.407Z,6.20
2018-03-14T02:49:21.366Z,6.30
2018-03-14T02:51:47.311Z,6.30
2018-03-14T02:54:13.304Z,6.30
2018-03-14T02:56:39.261Z,6.20
2018-03-14T02:59:05.368Z,6.20
2018-03-14T03:01:31.332Z,6.10
2018-03-14T03:03:57.281Z,6.20
2018-03-14T03:06:23.271Z,6.10
2018-03-14T03:08:49.199Z,6.10
2018-03-14T03:11:15.168Z,6.10
2018-03-14T03:13:41.101Z,6.10
2018-03-14T03:16:07.044Z,6.10
2018-03-14T03:18:33.157Z,6.00
2018-03-14T03:20:59.844Z,5.90
2018-03-14T03:23:25.812Z,5.90
2018-03-14T03:25:51.748Z,6.00
2018-03-14T03:28:18.481Z,5.80
2018-03-14T03:30:45.201Z,5.80
2018-03-14T03:33:11.160Z,5.80
2018-03-14T03:35:37.103Z,5.80
2018-03-14T03:38:03.092Z,5.70
2018-03-14T03:40:29.919Z,5.70
2018-03-14T03:42:55.852Z,5.70
2018-03-14T03:45:21.954Z,5.70
2018-03-14T03:47:47.897Z,5.70
2018-03-14T03:50:14.737Z,5.80
2018-03-14T03:52:41.436Z,5.80
2018-03-14T03:55:07.415Z,5.80
2018-03-14T03:57:33.368Z,5.70
2018-03-14T03:59:59.323Z,5.70
2018-03-14T04:02:25.396Z,5.60
2018-03-14T04:04:51.347Z,5.60
2018-03-14T04:07:17.435Z,5.60
2018-03-14T04:09:43.376Z,5.60
2018-03-14T04:12:10.118Z,5.50
2018-03-14T04:14:36.145Z,5.60
2018-03-14T04:17:02.884Z,5.60
2018-03-14T04:19:28.835Z,5.60
2018-03-14T04:21:54.789Z,5.70
2018-03-14T04:24:21.620Z,5.60
2018-03-14T04:26:47.620Z,5.60
2018-03-14T04:29:13.616Z,5.60
2018-03-14T04:31:39.575Z,5.60
2018-03-14T04:34:05.553Z,5.70
2018-03-14T04:36:31.480Z,5.70
2018-03-14T04:38:57.416Z,5.70
2018-03-14T04:41:23.503Z,5.70
2018-03-14T04:43:49.598Z,5.80
2018-03-14T04:46:16.326Z,5.90
2018-03-14T04:48:42.319Z,5.90
2018-03-14T04:51:08.412Z,5.90
2018-03-14T04:53:34.347Z,5.80
2018-03-14T04:56:00.309Z,5.70
2018-03-14T04:58:26.289Z,5.60
2018-03-14T05:00:52.254Z,5.60
2018-03-14T05:03:18.232Z,5.60
2018-03-14T05:05:44.222Z,5.60
2018-03-14T05:08:10.921Z,5.50
2018-03-14T05:10:36.903Z,5.50
2018-03-14T05:13:02.994Z,5.50
2018-03-14T05:15:28.951Z,5.50
2018-03-14T05:17:54.927Z,5.50
2018-03-14T05:20:20.867Z,5.60
2018-03-14T05:22:46.856Z,5.60
2018-03-14T05:25:12.796Z,5.60
2018-03-14T05:27:38.797Z,5.70
2018-03-14T05:30:04.753Z,5.70
2018-03-14T05:32:30.713Z,5.80
2018-03-14T05:34:56.684Z,5.80
2018-03-14T05:37:22.624Z,5.90
2018-03-14T05:39:49.527Z,6.00
2018-03-14T05:42:15.469Z,6.00
2018-03-14T05:44:41.463Z,6.00
2018-03-14T05:47:07.539Z,6.00
2018-03-14T05:49:34.232Z,5.90
2018-03-14T05:52:00.220Z,5.90
2018-03-14T05:54:26.183Z,6.00
2018-03-14T05:56:52.159Z,5.80
2018-03-14T05:59:18.880Z,5.90
2018-03-14T06:01:45.730Z,6.00
2018-03-14T06:04:12.441Z,5.90
2018-03-14T06:06:38.399Z,5.90
2018-03-14T06:09:05.132Z,5.90
2018-03-14T06:11:31.840Z,5.90
2018-03-14T06:13:57.825Z,5.90
2018-03-14T06:16:23.788Z,5.80
2018-03-14T06:18:49.888Z,5.80
2018-03-14T06:21:15.860Z,5.80
2018-03-14T06:23:42.607Z,6.00
2018-03-14T06:26:09.292Z,6.20
2018-03-14T06:28:35.234Z,6.20
2018-03-14T06:31:01.217Z,6.20
2018-03-14T06:33:27.151Z,6.20
2018-03-14T06:35:53.099Z,6.30
2018-03-14T06:38:19.184Z,6.40
2018-03-14T06:40:45.292Z,6.50
2018-03-14T06:43:12.008Z,6.70
2018-03-14T06:45:38.715Z,6.60
2018-03-14T06:48:04.689Z,6.70
2018-03-14T06:50:31.362Z,6.50
2018-03-14T06:52:57.456Z,6.50
2018-03-14T06:55:24.155Z,6.50
2018-03-14T06:57:50.124Z,6.50
2018-03-14T07:00:16.096Z,6.50
2018-03-14T07:02:42.049Z,6.50
2018-03-14T07:05:08.776Z,6.60
2018-03-14T07:07:34.721Z,6.60
2018-03-14T07:10:00.748Z,6.70
2018-03-14T07:12:26.704Z,6.70
2018-03-14T07:14:52.689Z,6.80
2018-03-14T07:17:19.429Z,6.80
2018-03-14T07:19:46.165Z,6.80
2018-03-14T07:22:12.128Z,6.70
2018-03-14T07:24:38.088Z,6.80
2018-03-14T07:27:04.170Z,6.90
2018-03-14T07:29:30.124Z,6.90
2018-03-14T07:31:56.142Z,6.80
2018-03-14T07:34:22.104Z,6.70
2018-03-14T07:36:48.800Z,6.60
2018-03-14T07:39:14.784Z,6.60
2018-03-14T07:41:40.886Z,6.70
2018-03-14T07:44:07.749Z,6.80
2018-03-14T07:46:33.705Z,6.80
2018-03-14T07:48:59.719Z,6.80
2018-03-14T07:51:25.699Z,6.80
2018-03-14T07:53:52.395Z,6.80
2018-03-14T07:56:18.388Z,6.80
2018-03-14T07:58:44.348Z,6.80
2018-03-14T08:01:10.507Z,6.80
2018-03-14T08:03:36.421Z,6.80
2018-03-14T08:06:03.174Z,6.90
2018-03-14T08:08:29.859Z,6.90
2018-03-14T08:10:55.816Z,6.90
2018-03-14T08:13:22.565Z,7.00
2018-03-14T08:15:49.441Z,7.10
2018-03-14T08:18:15.388Z,7.10
2018-03-14T08:20:41.348Z,7.10
2018-03-14T08:23:07.366Z,7.00
2018-03-14T08:25:33.311Z,7.00
2018-03-14T08:27:59.255Z,7.00
2018-03-14T08:30:25.253Z,7.10
2018-03-14T08:32:51.331Z,7.10
2018-03-14T08:35:17.291Z,7.20
2018-03-14T08:37:44.032Z,7.40
2018-03-14T08:40:10.792Z,7.40
2018-03-14T08:42:36.784Z,7.40
2018-03-14T08:45:02.894Z,7.50
2018-03-14T08:47:28.996Z,7.50
2018-03-14T08:49:55.123Z,7.50
2018-03-14T08:52:21.080Z,7.70
2018-03-14T08:54:47.102Z,7.80
2018-03-14T08:57:13.368Z,8.00
2018-03-14T08:59:39.368Z,8.10
2018-03-14T09:02:05.352Z,8.30
2018-03-14T09:04:31.408Z,8.50
2018-03-14T09:06:58.707Z,8.80
2018-03-14T09:09:24.755Z,8.70
2018-03-14T09:11:51.572Z,8.90
2018-03-14T09:14:17.536Z,8.90
2018-03-14T09:16:45.041Z,9.30
2018-03-14T09:19:11.952Z,9.30
2018-03-14T09:21:38.698Z,9.90
2018-03-14T09:24:04.703Z,9.90
2018-03-14T09:26:32.605Z,10.30
2018-03-14T09:29:00.642Z,10.60
2018-03-14T09:31:27.937Z,11.10
2018-03-14T09:33:54.188Z,11.40
2018-03-14T09:36:20.730Z,11.60
2018-03-14T09:38:48.697Z,11.90
2018-03-14T09:41:17.562Z,12.10
2018-03-14T09:43:44.712Z,12.10
2018-03-14T09:46:12.235Z,11.90
2018-03-14T09:48:38.979Z,11.90
2018-03-14T09:51:07.660Z,11.60
2018-03-14T09:53:36.339Z,11.40
2018-03-14T09:56:03.674Z,11.40
2018-03-14T09:58:30.586Z,11.50
2018-03-14T10:00:58.082Z,11.30
2018-03-14T10:03:26.034Z,11.00
2018-03-14T10:05:52.871Z,10.90
2018-03-14T10:08:19.216Z,10.60
2018-03-14T10:10:46.101Z,10.50
2018-03-14T10:13:14.155Z,10.60
2018-03-14T10:15:41.427Z,10.50
2018-03-14T10:18:08.139Z,10.50
2018-03-14T10:20:34.740Z,10.40
2018-03-14T10:23:00.887Z,10.40
2018-03-14T10:25:28.208Z,10.30
2018-03-14T10:27:56.474Z,10.30
2018-03-14T10:30:23.949Z,10.10
2018-03-14T10:32:51.870Z,10.00
2018-03-14T10:35:19.317Z,9.80
2018-03-14T10:37:46.488Z,9.80
2018-03-14T10:40:14.066Z,9.70
2018-03-14T10:42:41.096Z,9.70
2018-03-14T10:45:10.014Z,9.80
2018-03-14T10:47:36.588Z,9.70
2018-03-14T10:50:03.365Z,9.90
2018-03-14T10:52:33.924Z,10.30
2018-03-14T10:55:02.656Z,10.50
2018-03-14T10:57:32.214Z,10.80
2018-03-14T11:00:00.484Z,11.10
2018-03-14T11:02:29.675Z,11.10
2018-03-14T11:04:57.980Z,11.60
2018-03-14T11:07:26.442Z,11.60
2018-03-14T11:09:57.233Z,11.70
2018-03-14T11:12:24.341Z,11.70
2018-03-14T11:14:53.630Z,11.30
2018-03-14T11:17:21.482Z,11.30
2018-03-14T11:19:50.599Z,10.80
2018-03-14T11:22:20.034Z,10.80
2018-03-14T11:24:47.882Z,10.70
2018-03-14T11:27:16.239Z,10.70
2018-03-14T11:29:45.328Z,10.60
2018-03-14T11:32:13.013Z,10.60
2018-03-14T11:34:39.864Z,10.60
2018-03-14T11:37:07.427Z,10.40
2018-03-14T11:39:35.571Z,10.40
2018-03-14T11:42:03.439Z,10.50
2018-03-14T11:44:32.011Z,10.60
2018-03-14T11:47:00.289Z,10.90
2018-03-14T11:49:27.687Z,10.90
2018-03-14T11:51:53.774Z,11.10
2018-03-14T11:54:22.351Z,11.00
2018-03-14T11:56:49.806Z,11.20
2018-03-14T11:59:17.318Z,11.20
2018-03-14T12:01:44.943Z,11.30
2018-03-14T12:04:13.994Z,11.40
2018-03-14T12:06:41.888Z,11.50
2018-03-14T12:09:10.302Z,12.10
2018-03-14T12:11:38.108Z,12.30
2018-03-14T12:14:05.581Z,12.30
2018-03-14T12:16:34.499Z,12.80
2018-03-14T12:19:01.593Z,12.80
2018-03-14T12:21:30.570Z,12.80
2018-03-14T12:23:57.241Z,12.70
2018-03-14T12:26:35.743Z,12.50
2018-03-14T12:29:04.712Z,12.40
2018-03-14T12:31:33.344Z,12.70
2018-03-14T12:34:01.348Z,12.70
2018-03-14T12:36:30.207Z,13.10
2018-03-14T12:38:58.705Z,13.00
2018-03-14T12:41:26.081Z,13.00
2018-03-14T12:43:54.153Z,12.90
2018-03-14T12:46:21.844Z,13.00
2018-03-14T12:48:50.474Z,12.90
2018-03-14T12:51:17.309Z,12.80
2018-03-14T12:53:44.696Z,12.70
2018-03-14T12:56:12.306Z,12.50
2018-03-14T12:58:39.539Z,12.70
2018-03-14T13:01:07.293Z,12.80
2018-03-14T13:03:34.909Z,12.60
2018-03-14T13:06:03.154Z,12.30
2018-03-14T13:08:29.813Z,12.20
2018-03-14T13:10:57.764Z,12.30
2018-03-14T13:13:24.162Z,12.50
2018-03-14T13:15:50.354Z,12.70
2018-03-14T13:18:16.456Z,13.00
2018-03-14T13:20:43.792Z,12.80
2018-03-14T13:23:11.538Z,13.00
2018-03-14T13:25:38.808Z,13.10
2018-03-14T13:28:06.865Z,13.00
2018-03-14T13:30:33.743Z,13.20
2018-03-14T13:33:01.982Z,13.20
2018-03-14T13:35:30.481Z,13.40
2018-03-14T13:37:59.496Z,13.50
2018-03-14T13:40:26.293Z,13.50
2018-03-14T13:42:53.236Z,13.50
2018-03-14T13:45:20.442Z,13.50
2018-03-14T13:47:46.710Z,13.40
2018-03-14T13:50:13.094Z,13.40
2018-03-14T13:52:39.149Z,13.50
2018-03-14T13:55:05.177Z,13.70
2018-03-14T13:57:31.714Z,13.90
2018-03-14T13:59:57.751Z,14.20
2018-03-14T14:02:23.879Z,14.20
2018-03-14T14:04:49.899Z,14.10
2018-03-14T14:07:15.968Z,14.10
2018-03-14T14:09:41.946Z,14.20
2018-03-14T14:12:09.034Z,14.30
2018-03-14T14:14:35.926Z,14.00
2018-03-14T14:17:04.173Z,13.90
2018-03-14T14:19:31.280Z,13.80
2018-03-14T14:21:57.458Z,14.00
2018-03-14T14:24:23.770Z,13.80
2018-03-14T14:26:50.597Z,13.80
2018-03-14T14:29:16.739Z,14.00
2018-03-14T14:31:42.712Z,13.90
2018-03-14T14:34:08.733Z,13.90
2018-03-14T14:36:35.314Z,13.80
2018-03-14T14:39:02.562Z,13.30
2018-03-14T14:41:29.343Z,13.30
2018-03-14T14:43:57.116Z,13.30
2018-03-14T14:46:23.253Z,13.40
2018-03-14T14:48:49.295Z,13.50
2018-03-14T14:51:15.329Z,13.70
2018-03-14T14:53:41.292Z,13.80
2018-03-14T14:56:07.280Z,14.00
2018-03-14T14:58:34.174Z,14.10
2018-03-14T15:01:00.551Z,14.10
2018-03-14T15:03:27.303Z,14.00
2018-03-14T15:05:53.324Z,14.00
2018-03-14T15:08:20.068Z,13.80
2018-03-14T15:10:48.702Z,13.80
2018-03-14T15:13:14.778Z,13.70
2018-03-14T15:15:40.712Z,13.70
2018-03-14T15:18:06.688Z,13.80
2018-03-14T15:20:32.669Z,14.00
2018-03-14T15:22:58.639Z,14.10
2018-03-14T15:25:24.620Z,14.20
2018-03-14T15:27:50.651Z,14.30
2018-03-14T15:30:17.594Z,14.30
2018-03-14T15:32:43.649Z,14.30
2018-03-14T15:35:09.669Z,14.20
2018-03-14T15:37:35.622Z,14.20
2018-03-14T15:40:01.599Z,14.10
2018-03-14T15:42:27.612Z,14.20
2018-03-14T15:44:53.607Z,14.20
2018-03-14T15:47:19.697Z,14.20
2018-03-14T15:49:45.677Z,14.10
2018-03-14T15:52:11.717Z,13.90
2018-03-14T15:54:37.726Z,13.70
2018-03-14T15:57:04.916Z,13.30
2018-03-14T15:59:30.877Z,13.30
2018-03-14T16:01:56.866Z,13.20
2018-03-14T16:04:23.705Z,13.30
2018-03-14T16:06:49.703Z,13.30
2018-03-14T16:09:15.705Z,13.40
2018-03-14T16:11:41.692Z,13.40
2018-03-14T16:14:09.169Z,13.40
2018-03-14T16:16:35.205Z,13.40
2018-03-14T16:19:01.205Z,13.40
2018-03-14T16:21:27.378Z,13.40
2018-03-14T16:23:53.699Z,13.20
2018-03-14T16:26:20.251Z,13.20
2018-03-14T16:28:46.367Z,13.00
2018-03-14T16:31:12.409Z,12.80
2018-03-14T16:33:38.396Z,12.80
2018-03-14T16:36:04.353Z,12.80
2018-03-14T16:38:30.477Z,12.60
2018-03-14T16:40:56.466Z,12.60
2018-03-14T16:43:23.577Z,12.20
2018-03-14T16:45:50.307Z,12.00
2018-03-14T16:48:17.038Z,11.80
2018-03-14T16:50:43.772Z,11.70
2018-03-14T16:53:09.761Z,11.70
2018-03-14T16:55:35.885Z,11.60
2018-03-14T16:58:01.837Z,11.50
2018-03-14T17:00:27.816Z,11.50
2018-03-14T17:02:53.830Z,11.40
2018-03-14T17:05:19.808Z,11.30
2018-03-14T17:07:45.796Z,11.30
2018-03-14T17:10:11.873Z,11.20
2018-03-14T17:12:37.862Z,11.20
2018-03-14T17:15:03.848Z,11.00
2018-03-14T17:17:29.890Z,10.90
2018-03-14T17:19:55.836Z,10.70
2018-03-14T17:22:21.824Z,10.60
2018-03-14T17:24:47.852Z,10.50
2018-03-14T17:27:13.943Z,10.50
2018-03-14T17:29:40.097Z,10.50
2018-03-14T17:32:06.080Z,10.40
2018-03-14T17:34:32.054Z,10.40
2018-03-14T17:36:58.046Z,10.30
2018-03-14T17:39:24.751Z,10.00
2018-03-14T17:41:50.703Z,10.10
2018-03-14T17:44:16.824Z,9.90
2018-03-14T17:46:43.570Z,10.00
2018-03-14T17:49:09.573Z,10.00
2018-03-14T17:51:35.570Z,10.00
2018-03-14T17:54:01.574Z,10.00
2018-03-14T17:56:27.597Z,9.90
2018-03-14T17:58:53.570Z,9.80
2018-03-14T18:01:20.422Z,9.60
2018-03-14T18:03:47.169Z,9.60
2018-03-14T18:06:13.164Z,9.60
2018-03-14T18:08:39.162Z,9.50
2018-03-14T18:11:05.162Z,9.40
2018-03-14T18:13:31.153Z,9.30
2018-03-14T18:15:57.863Z,9.10
2018-03-14T18:18:23.853Z,9.10
2018-03-14T18:20:49.872Z,9.00
2018-03-14T18:23:15.820Z,9.00
2018-03-14T18:25:41.849Z,9.00
2018-03-14T18:28:07.789Z,9.10
2018-03-14T18:30:33.919Z,9.00
2018-03-14T18:32:59.896Z,8.90
2018-03-14T18:35:26.029Z,8.90
2018-03-14T18:37:51.982Z,8.90
2018-03-14T18:40:17.933Z,8.70
2018-03-14T18:42:43.904Z,8.80
2018-03-14T18:45:09.879Z,8.70
2018-03-14T18:47:35.865Z,8.60
2018-03-14T18:50:01.886Z,8.60
2018-03-14T18:52:27.857Z,8.50
2018-03-14T18:54:53.845Z,8.50
2018-03-14T18:57:19.849Z,8.50
2018-03-14T18:59:45.809Z,8.40
2018-03-14T19:02:12.566Z,8.50
2018-03-14T19:04:39.308Z,8.50
2018-03-14T19:07:06.017Z,8.50
2018-03-14T19:09:32.881Z,8.40
2018-03-14T19:11:58.856Z,8.40
2018-03-14T19:14:25.611Z,8.40
2018-03-14T19:16:51.580Z,8.40
2018-03-14T19:19:17.578Z,8.40
2018-03-14T19:21:43.560Z,8.60
2018-03-14T19:24:09.522Z,8.50
2018-03-14T19:26:35.610Z,8.50
2018-03-14T19:29:01.713Z,8.40
2018-03-14T19:31:27.725Z,8.40
2018-03-14T19:33:54.429Z,8.50
2018-03-14T19:36:21.169Z,8.40
2018-03-14T19:38:47.881Z,8.30
2018-03-14T19:41:13.934Z,8.30
2018-03-14T19:43:40.626Z,8.30
2018-03-14T19:46:06.616Z,8.30
2018-03-14T19:48:32.607Z,8.20
2018-03-14T19:50:58.567Z,8.20
2018-03-14T19:53:24.562Z,8.20
2018-03-14T19:55:51.273Z,7.80
2018-03-14T19:58:17.332Z,7.80
2018-03-14T20:00:44.067Z,7.60
2018-03-14T20:03:10.809Z,7.60
2018-03-14T20:05:37.521Z,7.50
2018-03-14T20:08:03.524Z,7.60
2018-03-14T20:10:29.541Z,7.50
2018-03-14T20:12:56.721Z,7.40
2018-03-14T20:15:22.675Z,7.40
2018-03-14T20:17:48.638Z,7.40
2018-03-14T20:20:14.673Z,7.30
2018-03-14T20:22:40.631Z,7.30
2018-03-14T20:25:07.377Z,7.10
2018-03-14T20:27:34.088Z,7.10
2018-03-14T20:30:01.128Z,7.00
2018-03-14T20:32:27.098Z,7.00
2018-03-14T20:34:53.103Z,7.10
2018-03-14T20:37:19.083Z,7.00
2018-03-14T20:39:45.028Z,7.00
2018-03-14T20:42:11.024Z,6.90
2018-03-14T20:44:36.984Z,6.90
2018-03-14T20:47:03.757Z,6.80
2018-03-14T20:49:29.738Z,6.70
2018-03-14T20:51:55.714Z,6.70
2018-03-14T20:54:21.696Z,6.80
2018-03-14T20:56:48.451Z,6.70
2018-03-14T20:59:14.417Z,6.70
2018-03-14T21:01:40.393Z,6.70
2018-03-14T21:04:06.582Z,6.70
2018-03-14T21:06:32.537Z,6.80
2018-03-14T21:08:58.536Z,6.80
2018-03-14T21:11:24.486Z,6.80
2018-03-14T21:13:51.188Z,6.80
2018-03-14T21:16:17.162Z,6.80
2018-03-14T21:18:43.166Z,6.90
2018-03-14T21:21:10.086Z,6.90
2018-03-14T21:23:36.036Z,6.90
2018-03-14T21:26:02.013Z,6.90
2018-03-14T21:28:27.961Z,6.80
2018-03-14T21:30:54.077Z,6.80
2018-03-14T21:33:20.084Z,6.70
2018-03-14T21:35:46.043Z,6.70
2018-03-14T21:38:12.905Z,6.60
2018-03-14T21:40:38.865Z,6.60
2018-03-14T21:43:04.876Z,6.60
2018-03-14T21:45:30.885Z,6.60
2018-03-14T21:47:56.857Z,6.60
2018-03-14T21:50:22.836Z,6.60
2018-03-14T21:52:48.807Z,6.50
2018-03-14T21:55:15.644Z,6.50
2018-03-14T21:57:41.627Z,6.40
2018-03-14T22:00:07.655Z,6.50
2018-03-14T22:02:33.617Z,6.50
2018-03-14T22:04:59.625Z,6.40
2018-03-14T22:07:25.560Z,6.40
2018-03-14T22:09:51.513Z,6.20
2018-03-14T22:12:17.628Z,6.20
2018-03-14T22:14:43.636Z,6.20
2018-03-14T22:17:10.322Z,6.10
2018-03-14T22:19:36.300Z,6.10
2018-03-14T22:22:02.976Z,6.20
2018-03-14T22:24:29.069Z,6.20
2018-03-14T22:26:55.765Z,6.30
2018-03-14T22:29:21.849Z,6.30
2018-03-14T22:31:47.939Z,6.30
2018-03-14T22:34:13.914Z,6.20
2018-03-14T22:36:39.890Z,6.20
2018-03-14T22:39:06.600Z,6.20
2018-03-14T22:41:32.565Z,6.20
2018-03-14T22:43:59.276Z,6.20
2018-03-14T22:46:25.216Z,6.10
2018-03-14T22:48:52.057Z,6.10
2018-03-14T22:51:18.020Z,6.10
2018-03-14T22:53:44.002Z,6.00
2018-03-14T22:56:10.719Z,5.80
2018-03-14T22:58:36.831Z,5.90
2018-03-14T23:01:02.773Z,5.90
2018-03-14T23:03:28.753Z,5.70
2018-03-14T23:05:54.737Z,5.70
2018-03-14T23:08:21.457Z,5.60
2018-03-14T23:10:47.392Z,5.60
2018-03-14T23:13:13.407Z,5.60
2018-03-14T23:15:39.385Z,5.50
2018-03-14T23:18:05.362Z,5.50
2018-03-14T23:20:32.057Z,5.40
2018-03-14T23:22:58.167Z,5.40
2018-03-14T23:25:24.120Z,5.40
2018-03-14T23:27:50.137Z,5.40
2018-03-14T23:30:36.634Z,5.40
2018-03-14T23:33:02.653Z,5.40
2018-03-14T23:35:28.633Z,5.40
2018-03-14T23:37:55.316Z,5.50
2018-03-14T23:40:21.464Z,5.50
2018-03-14T23:42:47.393Z,5.50
2018-03-14T23:45:13.361Z,5.50
2018-03-14T23:47:39.314Z,5.50
2018-03-14T23:50:05.460Z,5.50
2018-03-14T23:52:31.397Z,5.50
2018-03-14T23:54:57.437Z,5.50
2018-03-14T23:57:23.424Z,5.60
2018-03-14T23:59:49.387Z,5.50
